sensor_id;sensor_type;location;lat;lon;timestamp;temperature;humidity
15341;DHT22;7770;52.158;5.372;2023-07-29T00:01:04;17.60;99.90
15341;DHT22;7770;52.158;5.372;2023-07-29T00:03:50;17.60;99.90
15341;DHT22;7770;52.158;5.372;2023-07-29T00:06:36;17.50;99.90
15341;DHT22;7770;52.158;5.372;2023-07-29T00:09:22;17.50;99.90
15341;DHT22;7770;52.158;5.372;2023-07-29T00:12:08;17.40;99.90
15341;DHT22;7770;52.158;5.372;2023-07-29T00:14:54;17.40;99.90
15341;DHT22;7770;52.158;5.372;2023-07-29T00:17:40;17.30;99.90
15341;DHT22;7770;52.158;5.372;2023-07-29T00:20:26;17.30;99.90
15341;DHT22;7770;52.158;5.372;2023-07-29T00:23:12;17.30;99.90
15341;DHT22;7770;52.158;5.372;2023-07-29T00:25:59;17.20;99.90
15341;DHT22;7770;52.158;5.372;2023-07-29T00:28:45;17.20;99.90
15341;DHT22;7770;52.158;5.372;2023-07-29T00:31:30;17.10;99.90
15341;DHT22;7770;52.158;5.372;2023-07-29T00:34:16;17.10;99.90
15341;DHT22;7770;52.158;5.372;2023-07-29T00:37:05;17.10;99.90
15341;DHT22;7770;52.158;5.372;2023-07-29T00:39:51;17.10;99.90
15341;DHT22;7770;52.158;5.372;2023-07-29T00:42:37;17.20;99.90
15341;DHT22;7770;52.158;5.372;2023-07-29T00:45:25;17.10;99.90
15341;DHT22;7770;52.158;5.372;2023-07-29T00:48:12;17.10;99.90
15341;DHT22;7770;52.158;5.372;2023-07-29T00:50:59;17.20;99.90
15341;DHT22;7770;52.158;5.372;2023-07-29T00:53:45;17.30;99.90
15341;DHT22;7770;52.158;5.372;2023-07-29T00:56:31;17.30;99.90
15341;DHT22;7770;52.158;5.372;2023-07-29T00:59:17;17.40;99.90
15341;DHT22;7770;52.158;5.372;2023-07-29T01:02:03;17.40;99.90
15341;DHT22;7770;52.158;5.372;2023-07-29T01:04:54;17.40;99.90
15341;DHT22;7770;52.158;5.372;2023-07-29T01:07:55;17.40;99.90
15341;DHT22;7770;52.158;5.372;2023-07-29T01:11:03;17.30;99.90
15341;DHT22;7770;52.158;5.372;2023-07-29T01:13:58;17.30;99.90
15341;DHT22;7770;52.158;5.372;2023-07-29T01:17:03;17.30;99.90
15341;DHT22;7770;52.158;5.372;2023-07-29T01:20:06;17.30;99.90
15341;DHT22;7770;52.158;5.372;2023-07-29T01:22:54;17.20;99.90
15341;DHT22;7770;52.158;5.372;2023-07-29T01:25:40;17.20;99.90
15341;DHT22;7770;52.158;5.372;2023-07-29T01:28:27;17.30;99.90
15341;DHT22;7770;52.158;5.372;2023-07-29T01:31:22;17.30;99.90
15341;DHT22;7770;52.158;5.372;2023-07-29T01:34:20;17.30;99.90
15341;DHT22;7770;52.158;5.372;2023-07-29T01:37:16;17.20;99.90
15341;DHT22;7770;52.158;5.372;2023-07-29T01:40:07;17.20;99.90
15341;DHT22;7770;52.158;5.372;2023-07-29T01:42:54;17.20;99.90
15341;DHT22;7770;52.158;5.372;2023-07-29T01:45:41;17.20;99.90
15341;DHT22;7770;52.158;5.372;2023-07-29T01:48:27;17.20;99.90
15341;DHT22;7770;52.158;5.372;2023-07-29T01:51:16;17.10;99.90
15341;DHT22;7770;52.158;5.372;2023-07-29T01:54:02;17.10;99.90
15341;DHT22;7770;52.158;5.372;2023-07-29T01:56:48;17.10;99.90
15341;DHT22;7770;52.158;5.372;2023-07-29T01:59:36;17.10;99.90
15341;DHT22;7770;52.158;5.372;2023-07-29T02:02:22;17.20;99.90
15341;DHT22;7770;52.158;5.372;2023-07-29T02:05:08;17.20;99.90
15341;DHT22;7770;52.158;5.372;2023-07-29T02:07:54;17.20;99.90
15341;DHT22;7770;52.158;5.372;2023-07-29T02:10:40;17.30;99.90
15341;DHT22;7770;52.158;5.372;2023-07-29T02:13:28;17.20;99.90
15341;DHT22;7770;52.158;5.372;2023-07-29T02:16:14;17.20;99.90
15341;DHT22;7770;52.158;5.372;2023-07-29T02:19:00;17.30;99.90
15341;DHT22;7770;52.158;5.372;2023-07-29T02:21:46;17.20;99.90
15341;DHT22;7770;52.158;5.372;2023-07-29T02:24:32;17.20;99.90
15341;DHT22;7770;52.158;5.372;2023-07-29T02:27:18;17.20;99.90
15341;DHT22;7770;52.158;5.372;2023-07-29T02:30:04;17.10;99.90
15341;DHT22;7770;52.158;5.372;2023-07-29T02:32:51;17.10;99.90
15341;DHT22;7770;52.158;5.372;2023-07-29T02:35:37;17.10;99.90
15341;DHT22;7770;52.158;5.372;2023-07-29T02:38:23;17.00;99.90
15341;DHT22;7770;52.158;5.372;2023-07-29T02:41:10;17.00;99.90
15341;DHT22;7770;52.158;5.372;2023-07-29T02:43:58;17.10;99.90
15341;DHT22;7770;52.158;5.372;2023-07-29T02:46:44;17.10;99.90
15341;DHT22;7770;52.158;5.372;2023-07-29T02:49:30;17.00;99.90
15341;DHT22;7770;52.158;5.372;2023-07-29T02:52:16;17.00;99.90
15341;DHT22;7770;52.158;5.372;2023-07-29T02:55:02;17.00;99.90
15341;DHT22;7770;52.158;5.372;2023-07-29T02:57:49;16.90;99.90
15341;DHT22;7770;52.158;5.372;2023-07-29T03:00:35;16.90;99.90
15341;DHT22;7770;52.158;5.372;2023-07-29T03:03:21;16.80;99.90
15341;DHT22;7770;52.158;5.372;2023-07-29T03:06:09;16.80;99.90
15341;DHT22;7770;52.158;5.372;2023-07-29T03:08:56;16.80;99.90
15341;DHT22;7770;52.158;5.372;2023-07-29T03:11:42;16.80;99.90
15341;DHT22;7770;52.158;5.372;2023-07-29T03:14:28;16.70;99.90
15341;DHT22;7770;52.158;5.372;2023-07-29T03:17:14;16.60;99.90
15341;DHT22;7770;52.158;5.372;2023-07-29T03:20:00;16.60;99.90
15341;DHT22;7770;52.158;5.372;2023-07-29T03:22:46;16.60;99.90
15341;DHT22;7770;52.158;5.372;2023-07-29T03:25:32;16.60;99.90
15341;DHT22;7770;52.158;5.372;2023-07-29T03:28:18;16.60;99.90
15341;DHT22;7770;52.158;5.372;2023-07-29T03:31:04;16.60;99.90
15341;DHT22;7770;52.158;5.372;2023-07-29T03:33:50;16.60;99.90
15341;DHT22;7770;52.158;5.372;2023-07-29T03:36:36;16.70;99.90
15341;DHT22;7770;52.158;5.372;2023-07-29T03:39:22;16.70;99.90
15341;DHT22;7770;52.158;5.372;2023-07-29T03:42:08;16.70;99.90
15341;DHT22;7770;52.158;5.372;2023-07-29T03:44:54;16.60;99.90
15341;DHT22;7770;52.158;5.372;2023-07-29T03:47:40;16.60;99.90
15341;DHT22;7770;52.158;5.372;2023-07-29T03:50:27;16.70;99.90
15341;DHT22;7770;52.158;5.372;2023-07-29T03:53:14;16.70;99.90
15341;DHT22;7770;52.158;5.372;2023-07-29T03:56:00;16.70;99.90
15341;DHT22;7770;52.158;5.372;2023-07-29T03:58:46;16.70;99.90
15341;DHT22;7770;52.158;5.372;2023-07-29T04:01:33;16.70;99.90
15341;DHT22;7770;52.158;5.372;2023-07-29T04:04:20;16.70;99.90
15341;DHT22;7770;52.158;5.372;2023-07-29T04:07:06;16.70;99.90
15341;DHT22;7770;52.158;5.372;2023-07-29T04:09:52;16.70;99.90
15341;DHT22;7770;52.158;5.372;2023-07-29T04:12:38;16.70;99.90
15341;DHT22;7770;52.158;5.372;2023-07-29T04:15:24;16.60;99.90
15341;DHT22;7770;52.158;5.372;2023-07-29T04:18:10;16.60;99.90
15341;DHT22;7770;52.158;5.372;2023-07-29T04:20:56;16.60;99.90
15341;DHT22;7770;52.158;5.372;2023-07-29T04:23:42;16.60;99.90
15341;DHT22;7770;52.158;5.372;2023-07-29T04:26:28;16.60;99.90
15341;DHT22;7770;52.158;5.372;2023-07-29T04:29:14;16.60;99.90
15341;DHT22;7770;52.158;5.372;2023-07-29T04:32:00;16.60;99.90
15341;DHT22;7770;52.158;5.372;2023-07-29T04:34:47;16.50;99.90
15341;DHT22;7770;52.158;5.372;2023-07-29T04:37:33;16.60;99.90
15341;DHT22;7770;52.158;5.372;2023-07-29T04:40:19;16.60;99.90
15341;DHT22;7770;52.158;5.372;2023-07-29T04:43:05;16.60;99.90
15341;DHT22;7770;52.158;5.372;2023-07-29T04:45:51;16.60;99.90
15341;DHT22;7770;52.158;5.372;2023-07-29T04:48:37;16.60;99.90
15341;DHT22;7770;52.158;5.372;2023-07-29T04:51:24;16.70;99.90
15341;DHT22;7770;52.158;5.372;2023-07-29T04:54:10;16.60;99.90
15341;DHT22;7770;52.158;5.372;2023-07-29T04:56:56;16.60;99.90
15341;DHT22;7770;52.158;5.372;2023-07-29T04:59:42;16.60;99.90
15341;DHT22;7770;52.158;5.372;2023-07-29T05:02:28;16.60;99.90
15341;DHT22;7770;52.158;5.372;2023-07-29T05:05:14;16.70;99.90
15341;DHT22;7770;52.158;5.372;2023-07-29T05:08:00;16.70;99.90
15341;DHT22;7770;52.158;5.372;2023-07-29T05:10:49;16.80;99.90
15341;DHT22;7770;52.158;5.372;2023-07-29T05:13:36;16.90;99.90
15341;DHT22;7770;52.158;5.372;2023-07-29T05:16:23;17.00;99.90
15341;DHT22;7770;52.158;5.372;2023-07-29T05:19:09;17.10;99.90
15341;DHT22;7770;52.158;5.372;2023-07-29T05:21:56;17.20;99.90
15341;DHT22;7770;52.158;5.372;2023-07-29T05:24:42;17.20;99.90
15341;DHT22;7770;52.158;5.372;2023-07-29T05:27:28;17.30;99.90
15341;DHT22;7770;52.158;5.372;2023-07-29T05:30:14;17.30;99.90
15341;DHT22;7770;52.158;5.372;2023-07-29T05:33:00;17.40;99.90
15341;DHT22;7770;52.158;5.372;2023-07-29T05:35:46;17.60;99.90
15341;DHT22;7770;52.158;5.372;2023-07-29T05:38:33;17.70;99.90
15341;DHT22;7770;52.158;5.372;2023-07-29T05:41:19;17.80;99.90
15341;DHT22;7770;52.158;5.372;2023-07-29T05:44:05;17.90;99.90
15341;DHT22;7770;52.158;5.372;2023-07-29T05:46:51;18.10;99.90
15341;DHT22;7770;52.158;5.372;2023-07-29T05:49:37;18.40;99.90
15341;DHT22;7770;52.158;5.372;2023-07-29T05:52:23;18.70;99.90
15341;DHT22;7770;52.158;5.372;2023-07-29T05:55:09;18.90;99.90
15341;DHT22;7770;52.158;5.372;2023-07-29T05:57:55;19.00;99.90
15341;DHT22;7770;52.158;5.372;2023-07-29T06:00:41;19.00;99.90
15341;DHT22;7770;52.158;5.372;2023-07-29T06:03:27;19.10;99.90
15341;DHT22;7770;52.158;5.372;2023-07-29T06:06:13;19.10;99.90
15341;DHT22;7770;52.158;5.372;2023-07-29T06:09:00;19.10;99.90
15341;DHT22;7770;52.158;5.372;2023-07-29T06:11:45;19.10;99.90
15341;DHT22;7770;52.158;5.372;2023-07-29T06:14:31;19.20;99.90
15341;DHT22;7770;52.158;5.372;2023-07-29T06:17:17;19.40;99.90
15341;DHT22;7770;52.158;5.372;2023-07-29T06:20:04;19.60;99.90
15341;DHT22;7770;52.158;5.372;2023-07-29T06:22:51;20.00;99.90
15341;DHT22;7770;52.158;5.372;2023-07-29T06:25:37;20.20;99.90
15341;DHT22;7770;52.158;5.372;2023-07-29T06:28:23;20.50;99.90
15341;DHT22;7770;52.158;5.372;2023-07-29T06:31:09;20.60;99.90
15341;DHT22;7770;52.158;5.372;2023-07-29T06:33:55;20.60;99.90
15341;DHT22;7770;52.158;5.372;2023-07-29T06:36:41;20.40;99.90
15341;DHT22;7770;52.158;5.372;2023-07-29T06:39:27;20.30;99.90
15341;DHT22;7770;52.158;5.372;2023-07-29T06:42:13;20.20;99.90
15341;DHT22;7770;52.158;5.372;2023-07-29T06:44:59;20.30;99.90
15341;DHT22;7770;52.158;5.372;2023-07-29T06:47:45;20.60;99.90
15341;DHT22;7770;52.158;5.372;2023-07-29T06:50:31;20.60;99.90
15341;DHT22;7770;52.158;5.372;2023-07-29T06:53:17;20.80;99.90
15341;DHT22;7770;52.158;5.372;2023-07-29T06:56:03;20.90;99.90
15341;DHT22;7770;52.158;5.372;2023-07-29T06:58:50;20.90;99.90
15341;DHT22;7770;52.158;5.372;2023-07-29T07:01:36;21.00;99.90
15341;DHT22;7770;52.158;5.372;2023-07-29T07:04:22;20.50;99.90
15341;DHT22;7770;52.158;5.372;2023-07-29T07:07:08;20.20;99.90
15341;DHT22;7770;52.158;5.372;2023-07-29T07:09:54;20.40;99.90
15341;DHT22;7770;52.158;5.372;2023-07-29T07:12:40;20.60;99.90
15341;DHT22;7770;52.158;5.372;2023-07-29T07:15:26;21.00;99.90
15341;DHT22;7770;52.158;5.372;2023-07-29T07:18:12;21.10;99.90
15341;DHT22;7770;52.158;5.372;2023-07-29T07:20:58;21.10;99.90
15341;DHT22;7770;52.158;5.372;2023-07-29T07:23:44;20.90;99.90
15341;DHT22;7770;52.158;5.372;2023-07-29T07:26:30;20.70;99.90
15341;DHT22;7770;52.158;5.372;2023-07-29T07:29:16;20.40;99.90
15341;DHT22;7770;52.158;5.372;2023-07-29T07:32:03;20.20;99.90
15341;DHT22;7770;52.158;5.372;2023-07-29T07:34:49;20.00;99.90
15341;DHT22;7770;52.158;5.372;2023-07-29T07:37:35;19.90;99.90
15341;DHT22;7770;52.158;5.372;2023-07-29T07:40:21;20.00;99.90
15341;DHT22;7770;52.158;5.372;2023-07-29T07:43:07;20.10;99.90
15341;DHT22;7770;52.158;5.372;2023-07-29T07:46:00;20.00;99.90
15341;DHT22;7770;52.158;5.372;2023-07-29T07:48:47;20.10;99.90
15341;DHT22;7770;52.158;5.372;2023-07-29T07:51:33;20.30;99.90
15341;DHT22;7770;52.158;5.372;2023-07-29T07:54:19;20.70;99.90
15341;DHT22;7770;52.158;5.372;2023-07-29T07:57:05;21.20;99.90
15341;DHT22;7770;52.158;5.372;2023-07-29T07:59:51;21.60;99.90
15341;DHT22;7770;52.158;5.372;2023-07-29T08:02:38;21.60;99.90
15341;DHT22;7770;52.158;5.372;2023-07-29T08:05:24;21.60;99.90
15341;DHT22;7770;52.158;5.372;2023-07-29T08:08:10;21.70;99.90
15341;DHT22;7770;52.158;5.372;2023-07-29T08:10:58;21.50;99.90
15341;DHT22;7770;52.158;5.372;2023-07-29T08:13:44;21.50;99.90
15341;DHT22;7770;52.158;5.372;2023-07-29T08:16:30;22.90;99.90
15341;DHT22;7770;52.158;5.372;2023-07-29T08:19:16;24.10;99.90
15341;DHT22;7770;52.158;5.372;2023-07-29T08:22:03;23.90;99.90
15341;DHT22;7770;52.158;5.372;2023-07-29T08:24:49;22.80;99.90
15341;DHT22;7770;52.158;5.372;2023-07-29T08:27:35;22.30;99.90
15341;DHT22;7770;52.158;5.372;2023-07-29T08:30:21;22.80;99.90
15341;DHT22;7770;52.158;5.372;2023-07-29T08:33:07;22.70;99.90
15341;DHT22;7770;52.158;5.372;2023-07-29T08:35:54;22.50;99.90
15341;DHT22;7770;52.158;5.372;2023-07-29T08:38:40;22.10;99.90
15341;DHT22;7770;52.158;5.372;2023-07-29T08:41:31;22.20;99.90
15341;DHT22;7770;52.158;5.372;2023-07-29T08:44:22;22.50;99.90
15341;DHT22;7770;52.158;5.372;2023-07-29T08:47:09;22.50;99.90
15341;DHT22;7770;52.158;5.372;2023-07-29T08:49:55;22.20;99.90
15341;DHT22;7770;52.158;5.372;2023-07-29T08:52:42;21.70;99.90
15341;DHT22;7770;52.158;5.372;2023-07-29T08:55:30;21.20;99.90
15341;DHT22;7770;52.158;5.372;2023-07-29T08:58:17;20.80;99.90
15341;DHT22;7770;52.158;5.372;2023-07-29T09:01:03;20.50;99.90
15341;DHT22;7770;52.158;5.372;2023-07-29T09:03:49;20.70;99.90
15341;DHT22;7770;52.158;5.372;2023-07-29T09:06:36;20.90;99.90
15341;DHT22;7770;52.158;5.372;2023-07-29T09:09:25;20.90;99.90
15341;DHT22;7770;52.158;5.372;2023-07-29T09:12:11;20.80;99.90
15341;DHT22;7770;52.158;5.372;2023-07-29T09:14:57;20.70;99.90
15341;DHT22;7770;52.158;5.372;2023-07-29T09:17:43;21.70;99.90
15341;DHT22;7770;52.158;5.372;2023-07-29T09:20:29;23.70;99.90
15341;DHT22;7770;52.158;5.372;2023-07-29T09:23:16;25.20;99.90
15341;DHT22;7770;52.158;5.372;2023-07-29T09:26:04;25.10;99.90
15341;DHT22;7770;52.158;5.372;2023-07-29T09:28:58;24.70;99.90
15341;DHT22;7770;52.158;5.372;2023-07-29T09:31:44;24.00;99.90
15341;DHT22;7770;52.158;5.372;2023-07-29T09:34:30;23.80;99.90
15341;DHT22;7770;52.158;5.372;2023-07-29T09:37:23;23.70;99.90
15341;DHT22;7770;52.158;5.372;2023-07-29T09:40:14;23.30;99.90
15341;DHT22;7770;52.158;5.372;2023-07-29T09:43:01;22.90;99.90
15341;DHT22;7770;52.158;5.372;2023-07-29T09:45:48;22.70;99.90
15341;DHT22;7770;52.158;5.372;2023-07-29T09:48:35;22.70;99.90
15341;DHT22;7770;52.158;5.372;2023-07-29T09:51:22;22.70;99.90
15341;DHT22;7770;52.158;5.372;2023-07-29T09:54:09;22.50;99.90
15341;DHT22;7770;52.158;5.372;2023-07-29T09:56:56;22.40;99.90
15341;DHT22;7770;52.158;5.372;2023-07-29T09:59:43;22.20;99.90
15341;DHT22;7770;52.158;5.372;2023-07-29T10:02:29;21.80;99.90
15341;DHT22;7770;52.158;5.372;2023-07-29T10:05:17;21.50;99.90
15341;DHT22;7770;52.158;5.372;2023-07-29T10:08:04;21.00;99.90
15341;DHT22;7770;52.158;5.372;2023-07-29T10:10:50;21.10;99.90
15341;DHT22;7770;52.158;5.372;2023-07-29T10:13:38;21.60;99.90
15341;DHT22;7770;52.158;5.372;2023-07-29T10:16:24;22.20;99.90
15341;DHT22;7770;52.158;5.372;2023-07-29T10:19:11;22.60;99.90
15341;DHT22;7770;52.158;5.372;2023-07-29T10:22:03;23.10;99.90
15341;DHT22;7770;52.158;5.372;2023-07-29T10:24:50;23.30;99.90
15341;DHT22;7770;52.158;5.372;2023-07-29T10:27:43;23.10;99.90
15341;DHT22;7770;52.158;5.372;2023-07-29T10:30:33;23.00;99.90
15341;DHT22;7770;52.158;5.372;2023-07-29T10:33:20;23.10;99.90
15341;DHT22;7770;52.158;5.372;2023-07-29T10:36:06;23.20;99.90
15341;DHT22;7770;52.158;5.372;2023-07-29T10:38:52;23.10;99.90
15341;DHT22;7770;52.158;5.372;2023-07-29T10:44:48;21.40;99.90
15341;DHT22;7770;52.158;5.372;2023-07-29T10:47:36;20.70;99.90
15341;DHT22;7770;52.158;5.372;2023-07-29T10:50:22;20.20;99.90
15341;DHT22;7770;52.158;5.372;2023-07-29T10:53:08;20.10;99.90
15341;DHT22;7770;52.158;5.372;2023-07-29T10:55:55;20.20;99.90
15341;DHT22;7770;52.158;5.372;2023-07-29T10:58:42;20.30;99.90
15341;DHT22;7770;52.158;5.372;2023-07-29T11:01:32;20.40;99.90
15341;DHT22;7770;52.158;5.372;2023-07-29T11:10:00;21.10;99.90
15341;DHT22;7770;52.158;5.372;2023-07-29T11:12:52;21.50;99.90
15341;DHT22;7770;52.158;5.372;2023-07-29T11:15:39;21.70;99.90
15341;DHT22;7770;52.158;5.372;2023-07-29T11:18:27;21.80;99.90
15341;DHT22;7770;52.158;5.372;2023-07-29T11:21:17;21.80;99.90
15341;DHT22;7770;52.158;5.372;2023-07-29T11:24:04;21.80;99.90
15341;DHT22;7770;52.158;5.372;2023-07-29T11:26:50;21.80;99.90
15341;DHT22;7770;52.158;5.372;2023-07-29T11:29:36;21.50;99.90
15341;DHT22;7770;52.158;5.372;2023-07-29T11:32:22;21.20;99.90
15341;DHT22;7770;52.158;5.372;2023-07-29T11:35:09;20.50;99.90
15341;DHT22;7770;52.158;5.372;2023-07-29T11:37:56;20.30;99.90
15341;DHT22;7770;52.158;5.372;2023-07-29T11:40:42;20.10;99.90
15341;DHT22;7770;52.158;5.372;2023-07-29T11:43:28;20.00;99.90
15341;DHT22;7770;52.158;5.372;2023-07-29T11:46:14;20.00;99.90
15341;DHT22;7770;52.158;5.372;2023-07-29T11:49:01;19.90;99.90
15341;DHT22;7770;52.158;5.372;2023-07-29T11:51:47;19.90;99.90
15341;DHT22;7770;52.158;5.372;2023-07-29T11:54:34;20.00;99.90
15341;DHT22;7770;52.158;5.372;2023-07-29T11:57:21;20.20;99.90
15341;DHT22;7770;52.158;5.372;2023-07-29T12:00:09;20.70;99.90
15341;DHT22;7770;52.158;5.372;2023-07-29T12:02:56;21.40;99.90
15341;DHT22;7770;52.158;5.372;2023-07-29T12:05:42;22.30;99.90
15341;DHT22;7770;52.158;5.372;2023-07-29T12:08:29;23.40;99.90
15341;DHT22;7770;52.158;5.372;2023-07-29T12:11:15;24.30;99.90
15341;DHT22;7770;52.158;5.372;2023-07-29T12:14:01;24.80;99.90
15341;DHT22;7770;52.158;5.372;2023-07-29T12:16:48;25.20;99.90
15341;DHT22;7770;52.158;5.372;2023-07-29T12:19:36;25.10;99.90
15341;DHT22;7770;52.158;5.372;2023-07-29T12:22:24;24.60;99.90
15341;DHT22;7770;52.158;5.372;2023-07-29T12:25:10;24.50;99.90
15341;DHT22;7770;52.158;5.372;2023-07-29T12:27:56;24.20;99.90
15341;DHT22;7770;52.158;5.372;2023-07-29T12:30:48;24.10;99.90
15341;DHT22;7770;52.158;5.372;2023-07-29T12:33:38;23.70;99.90
15341;DHT22;7770;52.158;5.372;2023-07-29T12:36:44;23.50;99.90
15341;DHT22;7770;52.158;5.372;2023-07-29T12:39:39;23.60;99.90
15341;DHT22;7770;52.158;5.372;2023-07-29T12:42:27;23.60;99.90
15341;DHT22;7770;52.158;5.372;2023-07-29T12:45:15;23.70;99.90
15341;DHT22;7770;52.158;5.372;2023-07-29T12:48:02;23.90;99.90
15341;DHT22;7770;52.158;5.372;2023-07-29T12:50:48;24.00;99.90
15341;DHT22;7770;52.158;5.372;2023-07-29T12:53:34;24.00;99.90
15341;DHT22;7770;52.158;5.372;2023-07-29T12:56:20;24.20;99.90
15341;DHT22;7770;52.158;5.372;2023-07-29T12:59:06;24.60;99.90
15341;DHT22;7770;52.158;5.372;2023-07-29T13:01:52;24.50;99.90
15341;DHT22;7770;52.158;5.372;2023-07-29T13:04:38;24.20;99.90
15341;DHT22;7770;52.158;5.372;2023-07-29T13:07:24;24.20;99.90
15341;DHT22;7770;52.158;5.372;2023-07-29T13:10:10;24.30;99.90
15341;DHT22;7770;52.158;5.372;2023-07-29T13:12:56;24.40;99.90
15341;DHT22;7770;52.158;5.372;2023-07-29T13:15:42;24.20;99.90
15341;DHT22;7770;52.158;5.372;2023-07-29T13:18:28;24.00;99.90
15341;DHT22;7770;52.158;5.372;2023-07-29T13:21:14;23.90;99.90
15341;DHT22;7770;52.158;5.372;2023-07-29T13:24:01;23.60;99.90
15341;DHT22;7770;52.158;5.372;2023-07-29T13:26:47;23.30;99.90
15341;DHT22;7770;52.158;5.372;2023-07-29T13:29:33;23.10;99.90
15341;DHT22;7770;52.158;5.372;2023-07-29T13:32:19;23.20;99.90
15341;DHT22;7770;52.158;5.372;2023-07-29T13:35:05;23.30;99.90
15341;DHT22;7770;52.158;5.372;2023-07-29T13:37:51;23.20;99.90
15341;DHT22;7770;52.158;5.372;2023-07-29T13:40:37;23.10;99.90
15341;DHT22;7770;52.158;5.372;2023-07-29T13:43:23;23.60;99.90
15341;DHT22;7770;52.158;5.372;2023-07-29T13:46:09;23.90;99.90
15341;DHT22;7770;52.158;5.372;2023-07-29T13:48:55;23.80;99.90
15341;DHT22;7770;52.158;5.372;2023-07-29T13:51:41;23.40;99.90
15341;DHT22;7770;52.158;5.372;2023-07-29T13:54:28;23.30;99.90
15341;DHT22;7770;52.158;5.372;2023-07-29T13:57:14;23.70;99.90
15341;DHT22;7770;52.158;5.372;2023-07-29T14:00:00;24.10;99.90
15341;DHT22;7770;52.158;5.372;2023-07-29T14:02:46;24.20;99.90
15341;DHT22;7770;52.158;5.372;2023-07-29T14:05:32;24.10;99.90
15341;DHT22;7770;52.158;5.372;2023-07-29T14:08:18;24.00;99.90
15341;DHT22;7770;52.158;5.372;2023-07-29T14:11:04;24.30;99.90
15341;DHT22;7770;52.158;5.372;2023-07-29T14:13:50;24.20;99.90
15341;DHT22;7770;52.158;5.372;2023-07-29T14:16:36;24.10;99.90
15341;DHT22;7770;52.158;5.372;2023-07-29T14:19:23;24.10;99.90
15341;DHT22;7770;52.158;5.372;2023-07-29T14:22:09;24.10;99.90
15341;DHT22;7770;52.158;5.372;2023-07-29T14:24:55;23.90;99.90
15341;DHT22;7770;52.158;5.372;2023-07-29T14:27:41;23.90;99.90
15341;DHT22;7770;52.158;5.372;2023-07-29T14:30:27;24.10;99.90
15341;DHT22;7770;52.158;5.372;2023-07-29T14:33:13;24.20;99.90
15341;DHT22;7770;52.158;5.372;2023-07-29T14:36:00;24.60;99.90
15341;DHT22;7770;52.158;5.372;2023-07-29T14:38:46;24.70;99.90
15341;DHT22;7770;52.158;5.372;2023-07-29T14:41:32;24.90;99.90
15341;DHT22;7770;52.158;5.372;2023-07-29T14:44:18;24.80;99.90
15341;DHT22;7770;52.158;5.372;2023-07-29T14:47:04;24.50;99.90
15341;DHT22;7770;52.158;5.372;2023-07-29T14:49:51;24.40;99.90
15341;DHT22;7770;52.158;5.372;2023-07-29T14:52:37;24.30;99.90
15341;DHT22;7770;52.158;5.372;2023-07-29T14:55:23;24.60;99.90
15341;DHT22;7770;52.158;5.372;2023-07-29T14:58:09;24.70;99.90
15341;DHT22;7770;52.158;5.372;2023-07-29T15:00:55;24.70;99.90
15341;DHT22;7770;52.158;5.372;2023-07-29T15:03:41;24.40;99.90
15341;DHT22;7770;52.158;5.372;2023-07-29T15:06:27;24.20;99.90
15341;DHT22;7770;52.158;5.372;2023-07-29T15:09:13;24.00;99.90
15341;DHT22;7770;52.158;5.372;2023-07-29T15:11:59;23.70;99.90
15341;DHT22;7770;52.158;5.372;2023-07-29T15:14:45;23.50;99.90
15341;DHT22;7770;52.158;5.372;2023-07-29T15:17:33;23.50;99.90
15341;DHT22;7770;52.158;5.372;2023-07-29T15:20:19;23.60;99.90
15341;DHT22;7770;52.158;5.372;2023-07-29T15:23:05;23.80;99.90
15341;DHT22;7770;52.158;5.372;2023-07-29T15:25:51;23.90;99.90
15341;DHT22;7770;52.158;5.372;2023-07-29T15:28:37;24.20;99.90
15341;DHT22;7770;52.158;5.372;2023-07-29T15:31:23;24.30;99.90
15341;DHT22;7770;52.158;5.372;2023-07-29T15:34:09;24.40;99.90
15341;DHT22;7770;52.158;5.372;2023-07-29T15:36:55;24.40;99.90
15341;DHT22;7770;52.158;5.372;2023-07-29T15:39:41;24.40;99.90
15341;DHT22;7770;52.158;5.372;2023-07-29T15:42:27;24.50;99.90
15341;DHT22;7770;52.158;5.372;2023-07-29T15:45:13;24.50;99.90
15341;DHT22;7770;52.158;5.372;2023-07-29T15:47:59;24.50;99.90
15341;DHT22;7770;52.158;5.372;2023-07-29T15:50:45;24.40;99.90
15341;DHT22;7770;52.158;5.372;2023-07-29T15:53:31;24.30;99.90
15341;DHT22;7770;52.158;5.372;2023-07-29T15:56:17;24.10;99.90
15341;DHT22;7770;52.158;5.372;2023-07-29T15:59:03;24.00;99.90
15341;DHT22;7770;52.158;5.372;2023-07-29T16:01:49;23.90;99.90
15341;DHT22;7770;52.158;5.372;2023-07-29T16:04:35;23.90;99.90
15341;DHT22;7770;52.158;5.372;2023-07-29T16:07:21;23.70;99.90
15341;DHT22;7770;52.158;5.372;2023-07-29T16:10:08;23.60;99.90
15341;DHT22;7770;52.158;5.372;2023-07-29T16:12:54;23.40;99.90
15341;DHT22;7770;52.158;5.372;2023-07-29T16:15:40;23.40;99.90
15341;DHT22;7770;52.158;5.372;2023-07-29T16:18:26;23.40;99.90
15341;DHT22;7770;52.158;5.372;2023-07-29T16:21:12;23.40;99.90
15341;DHT22;7770;52.158;5.372;2023-07-29T16:23:58;23.30;99.90
15341;DHT22;7770;52.158;5.372;2023-07-29T16:26:44;23.20;99.90
15341;DHT22;7770;52.158;5.372;2023-07-29T16:29:30;23.30;99.90
15341;DHT22;7770;52.158;5.372;2023-07-29T16:32:17;23.20;99.90
15341;DHT22;7770;52.158;5.372;2023-07-29T16:35:03;23.10;99.90
15341;DHT22;7770;52.158;5.372;2023-07-29T16:37:49;22.90;99.90
15341;DHT22;7770;52.158;5.372;2023-07-29T16:40:38;23.00;99.90
15341;DHT22;7770;52.158;5.372;2023-07-29T16:43:24;22.80;99.90
15341;DHT22;7770;52.158;5.372;2023-07-29T16:46:10;22.80;99.90
15341;DHT22;7770;52.158;5.372;2023-07-29T16:48:56;22.80;99.90
15341;DHT22;7770;52.158;5.372;2023-07-29T16:51:43;22.70;99.90
15341;DHT22;7770;52.158;5.372;2023-07-29T16:54:29;22.80;99.90
15341;DHT22;7770;52.158;5.372;2023-07-29T16:57:15;22.80;99.90
15341;DHT22;7770;52.158;5.372;2023-07-29T17:00:02;22.80;99.90
15341;DHT22;7770;52.158;5.372;2023-07-29T17:02:48;22.60;99.90
15341;DHT22;7770;52.158;5.372;2023-07-29T17:05:34;22.50;99.90
15341;DHT22;7770;52.158;5.372;2023-07-29T17:08:20;22.40;99.90
15341;DHT22;7770;52.158;5.372;2023-07-29T17:11:06;22.40;99.90
15341;DHT22;7770;52.158;5.372;2023-07-29T17:13:52;22.30;99.90
15341;DHT22;7770;52.158;5.372;2023-07-29T17:16:38;22.30;99.90
15341;DHT22;7770;52.158;5.372;2023-07-29T17:19:24;22.40;99.90
15341;DHT22;7770;52.158;5.372;2023-07-29T17:22:10;22.60;99.90
15341;DHT22;7770;52.158;5.372;2023-07-29T17:24:56;22.60;99.90
15341;DHT22;7770;52.158;5.372;2023-07-29T17:27:42;22.60;99.90
15341;DHT22;7770;52.158;5.372;2023-07-29T17:30:28;22.50;99.90
15341;DHT22;7770;52.158;5.372;2023-07-29T17:33:14;22.70;99.90
15341;DHT22;7770;52.158;5.372;2023-07-29T17:36:00;22.60;99.90
15341;DHT22;7770;52.158;5.372;2023-07-29T17:38:46;22.50;99.90
15341;DHT22;7770;52.158;5.372;2023-07-29T17:41:33;22.40;99.90
15341;DHT22;7770;52.158;5.372;2023-07-29T17:44:19;22.30;99.90
15341;DHT22;7770;52.158;5.372;2023-07-29T17:47:05;22.10;99.90
15341;DHT22;7770;52.158;5.372;2023-07-29T17:49:51;22.00;99.90
15341;DHT22;7770;52.158;5.372;2023-07-29T17:52:37;21.90;99.90
15341;DHT22;7770;52.158;5.372;2023-07-29T17:55:23;21.90;99.90
15341;DHT22;7770;52.158;5.372;2023-07-29T17:58:09;22.10;99.90